Terminal Aerodrome Forecast
Issued by NWS Medford, OR

Home | Current Version | Previous Version | Text Only | Print | Product List | Glossary On
Versions: 1 2 3 4 5 6 7 8 9 10 11 12 13 14 15 16 17 18
000
FTUS46 KMFR 242300 RRA
TAFMFR
TAF
KMFR 242350Z 2500/2524 VRB03KT P6SM SCT080
     FM250600 14009G14KT P6SM SCT080 BKN120
     FM251000 15014G23KT P6SM BKN080 OVC120
     FM251700 15022G30KT P6SM VCSH OVC070
     FM252100 18012KT P6SM -RA BKN040 OVC060=

USA.gov is the U.S. government's official web portal to all federal, state and local government web resources and services.